sensor_id;sensor_type;location;lat;lon;timestamp;P1;durP1;ratioP1;P2;durP2;ratioP2
19364;SDS011;9818;48.382;10.850;2023-08-20T00:02:08;9.90;;;6.43;;
19364;SDS011;9818;48.382;10.850;2023-08-20T00:04:39;8.13;;;7.07;;
19364;SDS011;9818;48.382;10.850;2023-08-20T00:07:10;10.37;;;6.60;;
19364;SDS011;9818;48.382;10.850;2023-08-20T00:09:41;9.47;;;6.50;;
19364;SDS011;9818;48.382;10.850;2023-08-20T00:12:09;10.43;;;6.17;;
19364;SDS011;9818;48.382;10.850;2023-08-20T00:17:26;9.80;;;6.73;;
19364;SDS011;9818;48.382;10.850;2023-08-20T00:19:55;9.10;;;6.67;;
19364;SDS011;9818;48.382;10.850;2023-08-20T00:22:25;10.47;;;7.40;;
19364;SDS011;9818;48.382;10.850;2023-08-20T00:24:55;8.87;;;6.10;;
19364;SDS011;9818;48.382;10.850;2023-08-20T00:27:24;10.17;;;6.43;;
19364;SDS011;9818;48.382;10.850;2023-08-20T00:29:53;9.37;;;6.50;;
19364;SDS011;9818;48.382;10.850;2023-08-20T00:32:21;7.93;;;7.00;;
19364;SDS011;9818;48.382;10.850;2023-08-20T00:34:53;10.23;;;6.93;;
19364;SDS011;9818;48.382;10.850;2023-08-20T00:37:22;10.70;;;6.70;;
19364;SDS011;9818;48.382;10.850;2023-08-20T00:39:50;8.33;;;6.40;;
19364;SDS011;9818;48.382;10.850;2023-08-20T00:42:19;9.77;;;6.70;;
19364;SDS011;9818;48.382;10.850;2023-08-20T00:44:50;9.67;;;6.13;;
19364;SDS011;9818;48.382;10.850;2023-08-20T00:47:19;9.57;;;6.50;;
19364;SDS011;9818;48.382;10.850;2023-08-20T00:49:48;10.90;;;6.67;;
19364;SDS011;9818;48.382;10.850;2023-08-20T00:52:19;8.60;;;6.43;;
19364;SDS011;9818;48.382;10.850;2023-08-20T00:54:49;12.00;;;7.00;;
19364;SDS011;9818;48.382;10.850;2023-08-20T00:57:18;8.43;;;6.40;;
19364;SDS011;9818;48.382;10.850;2023-08-20T00:59:47;9.50;;;6.10;;
19364;SDS011;9818;48.382;10.850;2023-08-20T01:02:17;8.30;;;6.43;;
19364;SDS011;9818;48.382;10.850;2023-08-20T01:04:46;8.57;;;6.60;;
19364;SDS011;9818;48.382;10.850;2023-08-20T01:07:21;8.27;;;6.03;;
19364;SDS011;9818;48.382;10.850;2023-08-20T01:10:01;12.10;;;6.07;;
19364;SDS011;9818;48.382;10.850;2023-08-20T01:12:41;10.97;;;6.50;;
19364;SDS011;9818;48.382;10.850;2023-08-20T01:15:11;9.43;;;6.37;;
19364;SDS011;9818;48.382;10.850;2023-08-20T01:17:41;8.07;;;6.43;;
19364;SDS011;9818;48.382;10.850;2023-08-20T01:20:11;8.60;;;6.13;;
19364;SDS011;9818;48.382;10.850;2023-08-20T01:22:50;9.20;;;6.13;;
19364;SDS011;9818;48.382;10.850;2023-08-20T01:25:32;10.87;;;6.17;;
19364;SDS011;9818;48.382;10.850;2023-08-20T01:28:24;9.20;;;6.13;;
19364;SDS011;9818;48.382;10.850;2023-08-20T01:30:54;7.93;;;5.77;;
19364;SDS011;9818;48.382;10.850;2023-08-20T01:33:24;11.20;;;6.43;;
19364;SDS011;9818;48.382;10.850;2023-08-20T01:35:54;11.43;;;6.53;;
19364;SDS011;9818;48.382;10.850;2023-08-20T01:38:23;8.83;;;6.07;;
19364;SDS011;9818;48.382;10.850;2023-08-20T01:40:51;9.63;;;6.50;;
19364;SDS011;9818;48.382;10.850;2023-08-20T01:43:24;9.60;;;5.87;;
19364;SDS011;9818;48.382;10.850;2023-08-20T01:45:52;8.57;;;5.80;;
19364;SDS011;9818;48.382;10.850;2023-08-20T01:48:21;8.00;;;6.17;;
19364;SDS011;9818;48.382;10.850;2023-08-20T01:50:50;13.27;;;6.73;;
19364;SDS011;9818;48.382;10.850;2023-08-20T01:53:18;9.07;;;6.30;;
19364;SDS011;9818;48.382;10.850;2023-08-20T01:55:47;9.97;;;6.43;;
19364;SDS011;9818;48.382;10.850;2023-08-20T01:58:16;7.80;;;5.93;;
19364;SDS011;9818;48.382;10.850;2023-08-20T02:00:47;9.20;;;6.03;;
19364;SDS011;9818;48.382;10.850;2023-08-20T02:03:16;10.67;;;6.47;;
19364;SDS011;9818;48.382;10.850;2023-08-20T02:05:45;9.97;;;6.30;;
19364;SDS011;9818;48.382;10.850;2023-08-20T02:08:13;9.23;;;6.60;;
19364;SDS011;9818;48.382;10.850;2023-08-20T02:10:42;9.67;;;6.23;;
19364;SDS011;9818;48.382;10.850;2023-08-20T02:13:10;7.00;;;5.77;;
19364;SDS011;9818;48.382;10.850;2023-08-20T02:15:39;6.80;;;6.13;;
19364;SDS011;9818;48.382;10.850;2023-08-20T02:18:11;6.93;;;5.80;;
19364;SDS011;9818;48.382;10.850;2023-08-20T02:20:43;8.43;;;6.60;;
19364;SDS011;9818;48.382;10.850;2023-08-20T02:23:11;11.13;;;6.40;;
19364;SDS011;9818;48.382;10.850;2023-08-20T02:25:40;7.83;;;5.83;;
19364;SDS011;9818;48.382;10.850;2023-08-20T02:28:11;9.23;;;6.47;;
19364;SDS011;9818;48.382;10.850;2023-08-20T02:30:40;7.83;;;5.97;;
19364;SDS011;9818;48.382;10.850;2023-08-20T02:33:14;11.10;;;6.43;;
19364;SDS011;9818;48.382;10.850;2023-08-20T02:35:43;10.03;;;6.63;;
19364;SDS011;9818;48.382;10.850;2023-08-20T02:38:12;8.77;;;6.40;;
19364;SDS011;9818;48.382;10.850;2023-08-20T02:40:40;8.13;;;5.87;;
19364;SDS011;9818;48.382;10.850;2023-08-20T02:43:09;12.10;;;6.40;;
19364;SDS011;9818;48.382;10.850;2023-08-20T02:45:41;11.23;;;6.13;;
19364;SDS011;9818;48.382;10.850;2023-08-20T02:48:11;9.57;;;6.33;;
19364;SDS011;9818;48.382;10.850;2023-08-20T02:50:42;8.43;;;6.00;;
19364;SDS011;9818;48.382;10.850;2023-08-20T02:53:11;9.33;;;6.50;;
19364;SDS011;9818;48.382;10.850;2023-08-20T02:55:39;8.27;;;6.23;;
19364;SDS011;9818;48.382;10.850;2023-08-20T02:58:08;9.53;;;6.33;;
19364;SDS011;9818;48.382;10.850;2023-08-20T03:00:37;8.70;;;6.10;;
19364;SDS011;9818;48.382;10.850;2023-08-20T03:03:06;10.00;;;6.60;;
19364;SDS011;9818;48.382;10.850;2023-08-20T03:05:37;9.03;;;5.83;;
19364;SDS011;9818;48.382;10.850;2023-08-20T03:08:06;9.33;;;6.57;;
19364;SDS011;9818;48.382;10.850;2023-08-20T03:10:35;9.20;;;6.97;;
19364;SDS011;9818;48.382;10.850;2023-08-20T03:13:03;9.63;;;7.67;;
19364;SDS011;9818;48.382;10.850;2023-08-20T03:15:32;9.07;;;6.53;;
19364;SDS011;9818;48.382;10.850;2023-08-20T03:18:01;9.93;;;6.10;;
19364;SDS011;9818;48.382;10.850;2023-08-20T03:20:30;9.27;;;6.50;;
19364;SDS011;9818;48.382;10.850;2023-08-20T03:23:02;8.67;;;6.93;;
19364;SDS011;9818;48.382;10.850;2023-08-20T03:25:31;9.70;;;6.83;;
19364;SDS011;9818;48.382;10.850;2023-08-20T03:28:00;9.33;;;6.50;;
19364;SDS011;9818;48.382;10.850;2023-08-20T03:30:28;8.93;;;6.30;;
19364;SDS011;9818;48.382;10.850;2023-08-20T03:32:58;10.90;;;6.63;;
19364;SDS011;9818;48.382;10.850;2023-08-20T03:35:27;7.37;;;6.20;;
19364;SDS011;9818;48.382;10.850;2023-08-20T03:37:56;13.17;;;6.67;;
19364;SDS011;9818;48.382;10.850;2023-08-20T03:40:27;9.07;;;7.00;;
19364;SDS011;9818;48.382;10.850;2023-08-20T03:42:56;8.63;;;7.30;;
19364;SDS011;9818;48.382;10.850;2023-08-20T03:45:25;9.63;;;6.57;;
19364;SDS011;9818;48.382;10.850;2023-08-20T03:47:55;8.77;;;6.50;;
19364;SDS011;9818;48.382;10.850;2023-08-20T03:50:23;8.17;;;6.57;;
19364;SDS011;9818;48.382;10.850;2023-08-20T03:52:52;9.17;;;6.70;;
19364;SDS011;9818;48.382;10.850;2023-08-20T03:55:21;7.90;;;5.90;;
19364;SDS011;9818;48.382;10.850;2023-08-20T03:57:52;6.53;;;5.70;;
19364;SDS011;9818;48.382;10.850;2023-08-20T04:00:21;10.23;;;7.23;;
19364;SDS011;9818;48.382;10.850;2023-08-20T04:02:49;9.30;;;6.67;;
19364;SDS011;9818;48.382;10.850;2023-08-20T04:05:18;8.57;;;6.67;;
19364;SDS011;9818;48.382;10.850;2023-08-20T04:07:47;10.57;;;6.10;;
19364;SDS011;9818;48.382;10.850;2023-08-20T04:10:15;9.50;;;6.60;;
19364;SDS011;9818;48.382;10.850;2023-08-20T04:12:44;8.57;;;6.80;;
19364;SDS011;9818;48.382;10.850;2023-08-20T04:15:15;11.63;;;6.83;;
19364;SDS011;9818;48.382;10.850;2023-08-20T04:17:44;7.83;;;6.17;;
19364;SDS011;9818;48.382;10.850;2023-08-20T04:20:14;10.30;;;6.37;;
19364;SDS011;9818;48.382;10.850;2023-08-20T04:22:43;8.20;;;6.70;;
19364;SDS011;9818;48.382;10.850;2023-08-20T04:25:11;10.00;;;6.97;;
19364;SDS011;9818;48.382;10.850;2023-08-20T04:27:40;11.50;;;6.93;;
19364;SDS011;9818;48.382;10.850;2023-08-20T04:30:10;8.53;;;6.90;;
19364;SDS011;9818;48.382;10.850;2023-08-20T04:32:42;8.07;;;6.13;;
19364;SDS011;9818;48.382;10.850;2023-08-20T04:35:11;11.53;;;6.53;;
19364;SDS011;9818;48.382;10.850;2023-08-20T04:37:39;8.13;;;6.23;;
19364;SDS011;9818;48.382;10.850;2023-08-20T04:40:08;11.87;;;6.77;;
19364;SDS011;9818;48.382;10.850;2023-08-20T04:42:38;10.33;;;7.27;;
19364;SDS011;9818;48.382;10.850;2023-08-20T04:45:07;8.73;;;6.27;;
19364;SDS011;9818;48.382;10.850;2023-08-20T04:47:37;11.00;;;6.93;;
19364;SDS011;9818;48.382;10.850;2023-08-20T04:50:08;10.63;;;7.10;;
19364;SDS011;9818;48.382;10.850;2023-08-20T04:52:38;9.73;;;7.03;;
19364;SDS011;9818;48.382;10.850;2023-08-20T04:55:07;9.50;;;7.17;;
19364;SDS011;9818;48.382;10.850;2023-08-20T04:57:36;9.60;;;7.50;;
19364;SDS011;9818;48.382;10.850;2023-08-20T05:00:06;12.93;;;7.10;;
19364;SDS011;9818;48.382;10.850;2023-08-20T05:02:35;8.80;;;6.90;;
19364;SDS011;9818;48.382;10.850;2023-08-20T05:05:04;8.40;;;6.93;;
19364;SDS011;9818;48.382;10.850;2023-08-20T05:07:36;9.67;;;6.50;;
19364;SDS011;9818;48.382;10.850;2023-08-20T05:10:06;9.57;;;6.83;;
19364;SDS011;9818;48.382;10.850;2023-08-20T05:12:35;11.17;;;7.20;;
19364;SDS011;9818;48.382;10.850;2023-08-20T05:15:04;10.70;;;7.00;;
19364;SDS011;9818;48.382;10.850;2023-08-20T05:17:34;9.70;;;7.00;;
19364;SDS011;9818;48.382;10.850;2023-08-20T05:20:03;9.77;;;6.60;;
19364;SDS011;9818;48.382;10.850;2023-08-20T05:22:36;8.80;;;6.20;;
19364;SDS011;9818;48.382;10.850;2023-08-20T05:25:05;9.50;;;6.63;;
19364;SDS011;9818;48.382;10.850;2023-08-20T05:27:34;10.57;;;7.40;;
19364;SDS011;9818;48.382;10.850;2023-08-20T05:30:03;9.33;;;6.80;;
19364;SDS011;9818;48.382;10.850;2023-08-20T05:32:33;8.87;;;6.60;;
19364;SDS011;9818;48.382;10.850;2023-08-20T05:35:02;10.17;;;7.23;;
19364;SDS011;9818;48.382;10.850;2023-08-20T05:37:31;10.80;;;8.23;;
19364;SDS011;9818;48.382;10.850;2023-08-20T05:40:05;13.50;;;7.70;;
19364;SDS011;9818;48.382;10.850;2023-08-20T05:42:35;13.93;;;7.90;;
19364;SDS011;9818;48.382;10.850;2023-08-20T05:45:04;9.50;;;7.70;;
19364;SDS011;9818;48.382;10.850;2023-08-20T05:47:33;11.63;;;7.90;;
19364;SDS011;9818;48.382;10.850;2023-08-20T05:50:02;10.07;;;7.73;;
19364;SDS011;9818;48.382;10.850;2023-08-20T05:52:31;10.97;;;8.67;;
19364;SDS011;9818;48.382;10.850;2023-08-20T05:55:00;14.00;;;8.27;;
19364;SDS011;9818;48.382;10.850;2023-08-20T05:57:31;14.13;;;8.20;;
19364;SDS011;9818;48.382;10.850;2023-08-20T06:00:02;11.47;;;7.50;;
19364;SDS011;9818;48.382;10.850;2023-08-20T06:02:31;10.57;;;7.70;;
19364;SDS011;9818;48.382;10.850;2023-08-20T06:05:00;12.07;;;7.60;;
19364;SDS011;9818;48.382;10.850;2023-08-20T06:07:29;13.67;;;7.10;;
19364;SDS011;9818;48.382;10.850;2023-08-20T06:09:58;11.17;;;7.80;;
19364;SDS011;9818;48.382;10.850;2023-08-20T06:12:27;10.33;;;7.67;;
19364;SDS011;9818;48.382;10.850;2023-08-20T06:14:59;12.43;;;8.00;;
19364;SDS011;9818;48.382;10.850;2023-08-20T06:17:28;9.87;;;8.40;;
19364;SDS011;9818;48.382;10.850;2023-08-20T06:19:56;13.17;;;8.30;;
19364;SDS011;9818;48.382;10.850;2023-08-20T06:22:25;13.27;;;7.93;;
19364;SDS011;9818;48.382;10.850;2023-08-20T06:24:54;13.30;;;7.50;;
19364;SDS011;9818;48.382;10.850;2023-08-20T06:27:23;8.87;;;7.60;;
19364;SDS011;9818;48.382;10.850;2023-08-20T06:29:51;12.77;;;8.30;;
19364;SDS011;9818;48.382;10.850;2023-08-20T06:32:23;10.03;;;7.47;;
19364;SDS011;9818;48.382;10.850;2023-08-20T06:34:52;10.17;;;7.40;;
19364;SDS011;9818;48.382;10.850;2023-08-20T06:37:20;10.30;;;7.37;;
19364;SDS011;9818;48.382;10.850;2023-08-20T06:39:49;12.67;;;7.20;;
19364;SDS011;9818;48.382;10.850;2023-08-20T06:42:18;11.83;;;7.87;;
19364;SDS011;9818;48.382;10.850;2023-08-20T06:44:46;10.30;;;7.83;;
19364;SDS011;9818;48.382;10.850;2023-08-20T06:47:15;10.27;;;7.83;;
19364;SDS011;9818;48.382;10.850;2023-08-20T06:49:46;11.53;;;7.63;;
19364;SDS011;9818;48.382;10.850;2023-08-20T06:52:15;10.50;;;7.33;;
19364;SDS011;9818;48.382;10.850;2023-08-20T06:54:44;13.07;;;7.20;;
19364;SDS011;9818;48.382;10.850;2023-08-20T06:57:13;10.85;;;7.65;;
19364;SDS011;9818;48.382;10.850;2023-08-20T06:59:41;10.37;;;7.87;;
19364;SDS011;9818;48.382;10.850;2023-08-20T07:02:10;10.73;;;8.07;;
19364;SDS011;9818;48.382;10.850;2023-08-20T07:04:39;10.17;;;8.17;;
19364;SDS011;9818;48.382;10.850;2023-08-20T07:07:11;11.50;;;8.67;;
19364;SDS011;9818;48.382;10.850;2023-08-20T07:09:41;11.70;;;8.47;;
19364;SDS011;9818;48.382;10.850;2023-08-20T07:12:09;12.70;;;9.00;;
19364;SDS011;9818;48.382;10.850;2023-08-20T07:14:38;12.17;;;8.07;;
19364;SDS011;9818;48.382;10.850;2023-08-20T07:17:07;11.50;;;8.60;;
19364;SDS011;9818;48.382;10.850;2023-08-20T07:19:36;7.88;;;6.40;;
19364;SDS011;9818;48.382;10.850;2023-08-20T07:22:05;7.15;;;6.45;;
19364;SDS011;9818;48.382;10.850;2023-08-20T07:24:36;9.07;;;6.88;;
19364;SDS011;9818;48.382;10.850;2023-08-20T07:27:05;7.90;;;6.97;;
19364;SDS011;9818;48.382;10.850;2023-08-20T07:29:37;8.82;;;6.90;;
19364;SDS011;9818;48.382;10.850;2023-08-20T07:32:06;9.18;;;7.72;;
19364;SDS011;9818;48.382;10.850;2023-08-20T07:34:35;9.88;;;7.53;;
19364;SDS011;9818;48.382;10.850;2023-08-20T07:37:04;11.13;;;8.65;;
19364;SDS011;9818;48.382;10.850;2023-08-20T07:39:35;11.90;;;7.25;;
19364;SDS011;9818;48.382;10.850;2023-08-20T07:42:05;9.90;;;6.88;;
19364;SDS011;9818;48.382;10.850;2023-08-20T07:44:34;12.10;;;8.10;;
19364;SDS011;9818;48.382;10.850;2023-08-20T07:47:02;9.20;;;7.38;;
19364;SDS011;9818;48.382;10.850;2023-08-20T07:49:31;15.63;;;7.55;;
19364;SDS011;9818;48.382;10.850;2023-08-20T07:52:00;9.00;;;6.55;;
19364;SDS011;9818;48.382;10.850;2023-08-20T07:54:29;7.00;;;6.30;;
19364;SDS011;9818;48.382;10.850;2023-08-20T07:57:00;9.70;;;7.55;;
19364;SDS011;9818;48.382;10.850;2023-08-20T07:59:29;11.73;;;7.20;;
19364;SDS011;9818;48.382;10.850;2023-08-20T08:01:57;7.65;;;6.57;;
19364;SDS011;9818;48.382;10.850;2023-08-20T08:04:26;9.48;;;7.32;;
19364;SDS011;9818;48.382;10.850;2023-08-20T08:06:55;7.30;;;6.60;;
19364;SDS011;9818;48.382;10.850;2023-08-20T08:09:25;9.25;;;6.07;;
19364;SDS011;9818;48.382;10.850;2023-08-20T08:11:55;11.65;;;7.40;;
19364;SDS011;9818;48.382;10.850;2023-08-20T08:14:27;7.28;;;5.72;;
19364;SDS011;9818;48.382;10.850;2023-08-20T08:16:55;8.98;;;6.60;;
19364;SDS011;9818;48.382;10.850;2023-08-20T08:19:25;10.00;;;7.68;;
19364;SDS011;9818;48.382;10.850;2023-08-20T08:21:53;7.80;;;6.80;;
19364;SDS011;9818;48.382;10.850;2023-08-20T08:24:22;10.68;;;7.03;;
19364;SDS011;9818;48.382;10.850;2023-08-20T08:26:51;12.57;;;7.13;;
19364;SDS011;9818;48.382;10.850;2023-08-20T08:29:19;9.88;;;6.28;;
19364;SDS011;9818;48.382;10.850;2023-08-20T08:31:51;9.40;;;6.85;;
19364;SDS011;9818;48.382;10.850;2023-08-20T08:34:19;7.05;;;6.25;;
19364;SDS011;9818;48.382;10.850;2023-08-20T08:36:48;10.13;;;5.82;;
19364;SDS011;9818;48.382;10.850;2023-08-20T08:39:17;11.10;;;6.13;;
19364;SDS011;9818;48.382;10.850;2023-08-20T08:41:46;9.95;;;6.18;;
19364;SDS011;9818;48.382;10.850;2023-08-20T08:44:18;8.38;;;5.82;;
19364;SDS011;9818;48.382;10.850;2023-08-20T08:46:51;8.27;;;6.18;;
19364;SDS011;9818;48.382;10.850;2023-08-20T08:49:20;7.63;;;5.93;;
19364;SDS011;9818;48.382;10.850;2023-08-20T08:51:49;9.40;;;5.55;;
19364;SDS011;9818;48.382;10.850;2023-08-20T08:54:19;9.25;;;5.60;;
19364;SDS011;9818;48.382;10.850;2023-08-20T08:56:49;8.00;;;5.68;;
19364;SDS011;9818;48.382;10.850;2023-08-20T08:59:18;7.43;;;5.40;;
19364;SDS011;9818;48.382;10.850;2023-08-20T09:01:47;8.63;;;4.72;;
19364;SDS011;9818;48.382;10.850;2023-08-20T09:04:18;6.07;;;5.38;;
19364;SDS011;9818;48.382;10.850;2023-08-20T09:06:47;11.13;;;4.78;;
19364;SDS011;9818;48.382;10.850;2023-08-20T09:09:17;6.68;;;4.70;;
19364;SDS011;9818;48.382;10.850;2023-08-20T09:11:47;8.50;;;5.22;;
19364;SDS011;9818;48.382;10.850;2023-08-20T09:14:27;10.60;;;5.43;;
19364;SDS011;9818;48.382;10.850;2023-08-20T09:16:57;10.00;;;5.65;;
19364;SDS011;9818;48.382;10.850;2023-08-20T09:19:31;6.13;;;5.53;;
19364;SDS011;9818;48.382;10.850;2023-08-20T09:22:03;8.10;;;5.43;;
19364;SDS011;9818;48.382;10.850;2023-08-20T09:24:32;8.85;;;5.57;;
19364;SDS011;9818;48.382;10.850;2023-08-20T09:27:05;9.43;;;5.13;;
19364;SDS011;9818;48.382;10.850;2023-08-20T09:29:36;7.55;;;4.72;;
19364;SDS011;9818;48.382;10.850;2023-08-20T09:32:15;6.75;;;4.53;;
19364;SDS011;9818;48.382;10.850;2023-08-20T09:34:48;13.55;;;4.95;;
19364;SDS011;9818;48.382;10.850;2023-08-20T09:37:18;5.80;;;4.10;;
19364;SDS011;9818;48.382;10.850;2023-08-20T09:39:47;7.45;;;4.80;;
19364;SDS011;9818;48.382;10.850;2023-08-20T09:42:16;6.32;;;4.50;;
19364;SDS011;9818;48.382;10.850;2023-08-20T09:44:46;11.13;;;5.10;;
19364;SDS011;9818;48.382;10.850;2023-08-20T09:47:15;6.75;;;5.10;;
19364;SDS011;9818;48.382;10.850;2023-08-20T09:49:44;9.52;;;5.43;;
19364;SDS011;9818;48.382;10.850;2023-08-20T09:52:16;9.45;;;5.25;;
19364;SDS011;9818;48.382;10.850;2023-08-20T09:54:56;5.55;;;5.05;;
19364;SDS011;9818;48.382;10.850;2023-08-20T09:57:32;8.30;;;4.85;;
19364;SDS011;9818;48.382;10.850;2023-08-20T10:00:02;6.93;;;4.85;;
19364;SDS011;9818;48.382;10.850;2023-08-20T10:02:35;9.38;;;4.53;;
19364;SDS011;9818;48.382;10.850;2023-08-20T10:05:08;7.35;;;4.82;;
19364;SDS011;9818;48.382;10.850;2023-08-20T10:07:37;9.15;;;5.18;;
19364;SDS011;9818;48.382;10.850;2023-08-20T10:10:07;6.32;;;4.50;;
19364;SDS011;9818;48.382;10.850;2023-08-20T10:12:38;5.50;;;4.28;;
19364;SDS011;9818;48.382;10.850;2023-08-20T10:15:09;6.95;;;4.38;;
19364;SDS011;9818;48.382;10.850;2023-08-20T10:17:40;7.47;;;4.50;;
19364;SDS011;9818;48.382;10.850;2023-08-20T10:20:13;6.47;;;4.55;;
19364;SDS011;9818;48.382;10.850;2023-08-20T10:22:43;7.40;;;4.07;;
19364;SDS011;9818;48.382;10.850;2023-08-20T10:25:21;6.00;;;4.03;;
19364;SDS011;9818;48.382;10.850;2023-08-20T10:27:51;6.53;;;4.60;;
19364;SDS011;9818;48.382;10.850;2023-08-20T10:30:23;6.13;;;3.90;;
19364;SDS011;9818;48.382;10.850;2023-08-20T10:32:53;5.38;;;4.32;;
19364;SDS011;9818;48.382;10.850;2023-08-20T10:35:26;7.60;;;4.78;;
19364;SDS011;9818;48.382;10.850;2023-08-20T10:38:03;5.43;;;3.67;;
19364;SDS011;9818;48.382;10.850;2023-08-20T10:43:32;7.18;;;4.35;;
19364;SDS011;9818;48.382;10.850;2023-08-20T10:46:04;6.20;;;4.40;;
19364;SDS011;9818;48.382;10.850;2023-08-20T10:48:35;8.10;;;4.47;;
19364;SDS011;9818;48.382;10.850;2023-08-20T10:51:11;5.53;;;4.50;;
19364;SDS011;9818;48.382;10.850;2023-08-20T10:53:41;7.22;;;4.20;;
19364;SDS011;9818;48.382;10.850;2023-08-20T10:56:12;6.63;;;4.18;;
19364;SDS011;9818;48.382;10.850;2023-08-20T10:58:42;6.78;;;4.13;;
19364;SDS011;9818;48.382;10.850;2023-08-20T11:01:12;6.95;;;4.38;;
19364;SDS011;9818;48.382;10.850;2023-08-20T11:03:48;6.82;;;4.03;;
19364;SDS011;9818;48.382;10.850;2023-08-20T11:06:20;5.25;;;4.10;;
19364;SDS011;9818;48.382;10.850;2023-08-20T11:08:49;6.97;;;4.28;;
19364;SDS011;9818;48.382;10.850;2023-08-20T11:11:18;6.20;;;3.90;;
19364;SDS011;9818;48.382;10.850;2023-08-20T11:13:47;11.57;;;4.43;;
19364;SDS011;9818;48.382;10.850;2023-08-20T11:16:16;7.28;;;3.72;;
19364;SDS011;9818;48.382;10.850;2023-08-20T11:18:45;4.97;;;3.75;;
19364;SDS011;9818;48.382;10.850;2023-08-20T11:21:15;4.25;;;3.70;;
19364;SDS011;9818;48.382;10.850;2023-08-20T11:23:47;5.78;;;3.30;;
19364;SDS011;9818;48.382;10.850;2023-08-20T11:26:16;7.97;;;3.75;;
19364;SDS011;9818;48.382;10.850;2023-08-20T11:28:45;9.30;;;3.85;;
19364;SDS011;9818;48.382;10.850;2023-08-20T11:31:14;5.32;;;3.42;;
19364;SDS011;9818;48.382;10.850;2023-08-20T11:33:43;7.07;;;3.25;;
19364;SDS011;9818;48.382;10.850;2023-08-20T11:36:12;4.63;;;3.15;;
19364;SDS011;9818;48.382;10.850;2023-08-20T11:38:51;7.15;;;3.95;;
19364;SDS011;9818;48.382;10.850;2023-08-20T11:41:20;6.95;;;3.80;;
19364;SDS011;9818;48.382;10.850;2023-08-20T11:43:49;4.18;;;3.72;;
19364;SDS011;9818;48.382;10.850;2023-08-20T11:46:20;6.68;;;3.53;;
19364;SDS011;9818;48.382;10.850;2023-08-20T11:49:01;7.75;;;3.60;;
19364;SDS011;9818;48.382;10.850;2023-08-20T11:51:34;9.70;;;3.47;;
19364;SDS011;9818;48.382;10.850;2023-08-20T11:54:08;6.53;;;4.05;;
19364;SDS011;9818;48.382;10.850;2023-08-20T11:56:43;7.30;;;3.85;;
19364;SDS011;9818;48.382;10.850;2023-08-20T11:59:13;5.32;;;3.40;;
19364;SDS011;9818;48.382;10.850;2023-08-20T12:01:43;4.35;;;2.90;;
19364;SDS011;9818;48.382;10.850;2023-08-20T12:04:17;4.38;;;2.80;;
19364;SDS011;9818;48.382;10.850;2023-08-20T12:06:52;5.05;;;3.40;;
19364;SDS011;9818;48.382;10.850;2023-08-20T12:09:33;6.47;;;3.97;;
19364;SDS011;9818;48.382;10.850;2023-08-20T12:12:02;4.10;;;3.47;;
19364;SDS011;9818;48.382;10.850;2023-08-20T12:14:33;6.68;;;3.67;;
19364;SDS011;9818;48.382;10.850;2023-08-20T12:17:02;4.50;;;3.38;;
19364;SDS011;9818;48.382;10.850;2023-08-20T12:19:31;5.13;;;3.42;;
19364;SDS011;9818;48.382;10.850;2023-08-20T12:22:00;4.80;;;3.33;;
19364;SDS011;9818;48.382;10.850;2023-08-20T12:24:28;6.55;;;3.95;;
19364;SDS011;9818;48.382;10.850;2023-08-20T12:27:00;5.28;;;3.22;;
19364;SDS011;9818;48.382;10.850;2023-08-20T12:29:28;7.60;;;3.05;;
19364;SDS011;9818;48.382;10.850;2023-08-20T12:31:57;4.72;;;3.42;;
19364;SDS011;9818;48.382;10.850;2023-08-20T12:34:29;4.88;;;3.20;;
19364;SDS011;9818;48.382;10.850;2023-08-20T12:36:58;6.05;;;3.05;;
19364;SDS011;9818;48.382;10.850;2023-08-20T12:39:27;5.70;;;3.63;;
19364;SDS011;9818;48.382;10.850;2023-08-20T12:41:56;6.05;;;3.08;;
19364;SDS011;9818;48.382;10.850;2023-08-20T12:44:28;4.65;;;3.00;;
19364;SDS011;9818;48.382;10.850;2023-08-20T12:46:56;6.78;;;3.92;;
19364;SDS011;9818;48.382;10.850;2023-08-20T12:49:25;10.68;;;3.42;;
19364;SDS011;9818;48.382;10.850;2023-08-20T12:51:54;3.95;;;3.08;;
19364;SDS011;9818;48.382;10.850;2023-08-20T12:54:22;7.90;;;3.22;;
19364;SDS011;9818;48.382;10.850;2023-08-20T12:56:51;5.60;;;3.50;;
19364;SDS011;9818;48.382;10.850;2023-08-20T12:59:20;4.63;;;3.15;;
19364;SDS011;9818;48.382;10.850;2023-08-20T13:01:52;5.25;;;3.17;;
19364;SDS011;9818;48.382;10.850;2023-08-20T13:04:21;5.28;;;3.40;;
19364;SDS011;9818;48.382;10.850;2023-08-20T13:06:50;4.20;;;3.20;;
19364;SDS011;9818;48.382;10.850;2023-08-20T13:09:20;5.80;;;3.65;;
19364;SDS011;9818;48.382;10.850;2023-08-20T13:11:49;8.45;;;3.50;;
19364;SDS011;9818;48.382;10.850;2023-08-20T13:14:22;5.07;;;3.45;;
19364;SDS011;9818;48.382;10.850;2023-08-20T13:16:54;3.88;;;3.13;;
19364;SDS011;9818;48.382;10.850;2023-08-20T13:19:23;3.45;;;2.92;;
19364;SDS011;9818;48.382;10.850;2023-08-20T13:21:52;6.72;;;3.38;;
19364;SDS011;9818;48.382;10.850;2023-08-20T13:24:21;4.93;;;3.45;;
19364;SDS011;9818;48.382;10.850;2023-08-20T13:26:50;5.68;;;2.95;;
19364;SDS011;9818;48.382;10.850;2023-08-20T13:29:19;4.30;;;3.47;;
19364;SDS011;9818;48.382;10.850;2023-08-20T13:31:48;6.30;;;3.50;;
19364;SDS011;9818;48.382;10.850;2023-08-20T13:34:19;4.97;;;3.63;;
19364;SDS011;9818;48.382;10.850;2023-08-20T13:36:48;4.65;;;3.30;;
19364;SDS011;9818;48.382;10.850;2023-08-20T13:39:16;3.90;;;3.20;;
19364;SDS011;9818;48.382;10.850;2023-08-20T13:41:45;6.45;;;3.17;;
19364;SDS011;9818;48.382;10.850;2023-08-20T13:44:16;4.72;;;2.92;;
19364;SDS011;9818;48.382;10.850;2023-08-20T13:46:47;4.80;;;3.33;;
19364;SDS011;9818;48.382;10.850;2023-08-20T13:49:16;4.10;;;3.30;;
19364;SDS011;9818;48.382;10.850;2023-08-20T13:51:47;5.13;;;3.30;;
19364;SDS011;9818;48.382;10.850;2023-08-20T13:54:16;4.60;;;3.33;;
19364;SDS011;9818;48.382;10.850;2023-08-20T13:56:44;3.72;;;3.30;;
19364;SDS011;9818;48.382;10.850;2023-08-20T13:59:13;7.53;;;3.53;;
19364;SDS011;9818;48.382;10.850;2023-08-20T14:01:42;6.15;;;3.47;;
19364;SDS011;9818;48.382;10.850;2023-08-20T14:04:10;4.70;;;3.67;;
19364;SDS011;9818;48.382;10.850;2023-08-20T14:06:42;5.43;;;3.58;;
19364;SDS011;9818;48.382;10.850;2023-08-20T14:09:11;7.35;;;3.35;;
19364;SDS011;9818;48.382;10.850;2023-08-20T14:11:42;6.07;;;3.72;;
19364;SDS011;9818;48.382;10.850;2023-08-20T14:14:11;3.58;;;2.83;;
19364;SDS011;9818;48.382;10.850;2023-08-20T14:16:39;3.83;;;3.33;;
19364;SDS011;9818;48.382;10.850;2023-08-20T14:19:08;3.90;;;3.42;;
19364;SDS011;9818;48.382;10.850;2023-08-20T14:21:37;4.63;;;3.50;;
19364;SDS011;9818;48.382;10.850;2023-08-20T14:24:09;4.93;;;3.67;;
19364;SDS011;9818;48.382;10.850;2023-08-20T14:26:38;4.00;;;2.97;;
19364;SDS011;9818;48.382;10.850;2023-08-20T14:29:07;6.00;;;3.90;;
19364;SDS011;9818;48.382;10.850;2023-08-20T14:31:36;5.43;;;3.40;;
19364;SDS011;9818;48.382;10.850;2023-08-20T14:34:04;4.55;;;3.92;;
19364;SDS011;9818;48.382;10.850;2023-08-20T14:36:33;7.70;;;3.50;;
19364;SDS011;9818;48.382;10.850;2023-08-20T14:39:02;4.32;;;3.38;;
19364;SDS011;9818;48.382;10.850;2023-08-20T14:41:36;4.05;;;3.65;;
19364;SDS011;9818;48.382;10.850;2023-08-20T14:44:05;5.25;;;3.45;;
19364;SDS011;9818;48.382;10.850;2023-08-20T14:46:34;4.53;;;3.55;;
19364;SDS011;9818;48.382;10.850;2023-08-20T14:49:03;5.25;;;3.75;;
19364;SDS011;9818;48.382;10.850;2023-08-20T14:51:32;4.50;;;3.25;;
19364;SDS011;9818;48.382;10.850;2023-08-20T14:54:01;5.50;;;3.45;;
19364;SDS011;9818;48.382;10.850;2023-08-20T14:56:31;5.10;;;3.47;;
19364;SDS011;9818;48.382;10.850;2023-08-20T14:59:02;5.20;;;3.38;;
19364;SDS011;9818;48.382;10.850;2023-08-20T15:01:32;3.92;;;2.92;;
19364;SDS011;9818;48.382;10.850;2023-08-20T15:04:00;6.45;;;3.20;;
19364;SDS011;9818;48.382;10.850;2023-08-20T15:06:29;3.55;;;3.10;;